createdAt,value
2018-06-12T00:02:05.664Z,19.30
2018-06-12T00:04:34.063Z,19.48
2018-06-12T00:07:02.665Z,19.65
2018-06-12T00:09:31.123Z,19.98
2018-06-12T00:11:59.554Z,19.77
2018-06-12T00:14:27.991Z,19.68
2018-06-12T00:16:56.394Z,19.33
2018-06-12T00:19:25.231Z,19.31
2018-06-12T00:21:53.673Z,19.29
2018-06-12T00:24:22.090Z,19.20
2018-06-12T00:26:50.511Z,19.09
2018-06-12T00:29:18.924Z,19.21
2018-06-12T00:31:47.392Z,19.05
2018-06-12T00:34:15.812Z,19.16
2018-06-12T00:36:44.252Z,19.01
2018-06-12T00:39:12.670Z,18.99
2018-06-12T00:41:41.071Z,19.15
2018-06-12T00:44:09.756Z,19.16
2018-06-12T00:46:38.159Z,19.14
2018-06-12T00:49:10.087Z,19.08
2018-06-12T00:51:38.498Z,19.02
2018-06-12T00:54:06.927Z,18.90
2018-06-12T00:56:46.489Z,18.96
2018-06-12T00:59:14.892Z,18.89
2018-06-12T01:01:43.371Z,18.96
2018-06-12T01:04:11.801Z,19.13
2018-06-12T01:06:40.214Z,19.36
2018-06-12T01:09:08.694Z,19.18
2018-06-12T01:11:37.099Z,19.08
2018-06-12T01:14:05.675Z,19.12
2018-06-12T01:16:34.111Z,19.28
2018-06-12T01:19:02.503Z,19.18
2018-06-12T01:21:30.955Z,19.09
2018-06-12T01:23:59.368Z,18.95
2018-06-12T01:26:28.068Z,19.24
2018-06-12T01:28:56.468Z,19.05
2018-06-12T01:31:24.899Z,19.21
2018-06-12T01:33:53.362Z,19.47
2018-06-12T01:36:21.790Z,19.61
2018-06-12T01:38:50.330Z,19.58
2018-06-12T01:41:18.715Z,19.54
2018-06-12T01:43:47.251Z,19.57
2018-06-12T01:46:15.670Z,19.51
2018-06-12T01:48:44.070Z,19.08
2018-06-12T01:51:12.494Z,18.92
2018-06-12T01:53:40.944Z,18.87
2018-06-12T01:56:09.443Z,18.86
2018-06-12T01:58:37.863Z,18.97
2018-06-12T02:01:06.283Z,19.65
2018-06-12T02:03:34.763Z,19.45
2018-06-12T02:06:03.175Z,19.13
2018-06-12T02:08:31.812Z,19.24
2018-06-12T02:11:00.232Z,19.00
2018-06-12T02:13:28.668Z,19.01
2018-06-12T02:15:57.112Z,19.08
2018-06-12T02:18:25.518Z,19.41
2018-06-12T02:20:54.183Z,19.42
2018-06-12T02:23:22.591Z,19.79
2018-06-12T02:25:51.003Z,19.75
2018-06-12T02:28:19.445Z,19.83
2018-06-12T02:30:47.867Z,19.27
2018-06-12T02:33:16.431Z,19.03
2018-06-12T02:35:44.864Z,18.88
2018-06-12T02:38:13.319Z,18.98
2018-06-12T02:40:41.783Z,19.16
2018-06-12T02:43:10.214Z,18.60
2018-06-12T02:45:38.779Z,18.69
2018-06-12T02:48:07.199Z,18.94
2018-06-12T02:50:35.632Z,18.86
2018-06-12T02:53:04.076Z,19.10
2018-06-12T02:55:32.518Z,19.00
2018-06-12T02:58:00.943Z,18.89
2018-06-12T03:00:29.371Z,18.95
2018-06-12T03:02:57.786Z,18.74
2018-06-12T03:05:26.232Z,18.70
2018-06-12T03:07:54.647Z,18.60
2018-06-12T03:10:23.208Z,18.59
2018-06-12T03:12:51.609Z,18.55
2018-06-12T03:15:20.033Z,18.27
2018-06-12T03:17:48.512Z,18.57
2018-06-12T03:20:16.989Z,18.45
2018-06-12T03:22:45.468Z,18.63
2018-06-12T03:25:13.876Z,18.51
2018-06-12T03:27:42.307Z,18.53
2018-06-12T03:30:10.752Z,18.22
2018-06-12T03:32:39.172Z,18.40
2018-06-12T03:35:07.827Z,18.48
2018-06-12T03:37:36.279Z,18.71
2018-06-12T03:40:04.763Z,18.80
2018-06-12T03:42:33.212Z,18.51
2018-06-12T03:45:01.640Z,18.97
2018-06-12T03:47:30.199Z,19.00
2018-06-12T03:49:58.599Z,19.07
2018-06-12T03:52:27.023Z,18.82
2018-06-12T03:54:55.455Z,18.92
2018-06-12T03:57:23.894Z,18.56
2018-06-12T03:59:52.339Z,18.34
2018-06-12T04:02:20.755Z,18.56
2018-06-12T04:04:49.186Z,18.37
2018-06-12T04:07:17.639Z,18.31
2018-06-12T04:09:46.043Z,18.18
2018-06-12T04:12:14.495Z,18.25
2018-06-12T04:14:43.026Z,18.37
2018-06-12T04:17:11.436Z,18.47
2018-06-12T04:19:39.883Z,18.43
2018-06-12T04:22:08.331Z,18.58
2018-06-12T04:24:36.743Z,18.22
2018-06-12T04:27:05.368Z,18.75
2018-06-12T04:29:33.783Z,18.58
2018-06-12T04:32:02.231Z,18.16
2018-06-12T04:34:30.674Z,18.52
2018-06-12T04:36:59.107Z,18.52
2018-06-12T04:39:27.563Z,18.18
2018-06-12T04:41:55.999Z,18.36
2018-06-12T04:44:24.427Z,18.58
2018-06-12T04:46:52.879Z,18.29
2018-06-12T04:49:21.303Z,18.24
2018-06-12T04:51:50.422Z,18.75
2018-06-12T04:54:18.855Z,18.27
2018-06-12T04:56:47.327Z,18.18
2018-06-12T04:59:15.763Z,18.56
2018-06-12T05:01:44.175Z,18.83
2018-06-12T05:04:12.784Z,18.75
2018-06-12T05:06:41.244Z,18.46
2018-06-12T05:09:09.643Z,18.48
2018-06-12T05:11:38.083Z,18.25
2018-06-12T05:14:06.487Z,18.46
2018-06-12T05:16:35.010Z,18.63
2018-06-12T05:19:03.490Z,18.68
2018-06-12T05:21:31.923Z,18.75
2018-06-12T05:24:00.367Z,19.04
2018-06-12T05:26:28.787Z,19.07
2018-06-12T05:28:57.497Z,18.73
2018-06-12T05:31:25.919Z,18.74
2018-06-12T05:33:54.327Z,18.86
2018-06-12T05:36:22.767Z,18.76
2018-06-12T05:38:51.227Z,18.93
2018-06-12T05:41:19.847Z,18.46
2018-06-12T05:43:48.263Z,18.81
2018-06-12T05:46:16.699Z,18.20
2018-06-12T05:48:45.134Z,17.94
2018-06-12T05:51:13.576Z,18.49
2018-06-12T05:53:42.055Z,18.19
2018-06-12T05:56:10.516Z,18.22
2018-06-12T05:58:38.919Z,18.19
2018-06-12T06:01:07.395Z,18.20
2018-06-12T06:03:35.887Z,18.12
2018-06-12T06:06:04.412Z,18.31
2018-06-12T06:08:32.872Z,18.23
2018-06-12T06:11:01.328Z,18.12
2018-06-12T06:13:29.783Z,18.03
2018-06-12T06:15:58.231Z,17.55
2018-06-12T06:18:26.684Z,17.67
2018-06-12T06:20:55.084Z,17.59
2018-06-12T06:23:23.559Z,17.25
2018-06-12T06:25:51.987Z,17.27
2018-06-12T06:28:20.432Z,17.64
2018-06-12T06:30:48.924Z,17.67
2018-06-12T06:33:17.469Z,17.97
2018-06-12T06:35:45.891Z,17.55
2018-06-12T06:38:14.342Z,17.73
2018-06-12T06:40:42.762Z,17.65
2018-06-12T06:43:11.263Z,17.31
2018-06-12T06:45:39.723Z,17.65
2018-06-12T06:48:08.132Z,17.45
2018-06-12T06:50:36.543Z,17.31
2018-06-12T06:53:05.143Z,17.21
2018-06-12T06:55:33.571Z,17.39
2018-06-12T06:58:02.079Z,17.20
2018-06-12T07:00:30.496Z,17.08
2018-06-12T07:02:58.935Z,17.02
2018-06-12T07:05:27.580Z,17.33
2018-06-12T07:07:56.007Z,17.02
2018-06-12T07:10:24.442Z,17.01
2018-06-12T07:12:52.886Z,16.91
2018-06-12T07:15:21.300Z,16.84
2018-06-12T07:17:49.859Z,16.78
2018-06-12T07:20:59.971Z,17.06
2018-06-12T07:23:28.423Z,16.91
2018-06-12T07:25:56.845Z,17.16
2018-06-12T07:28:25.699Z,16.83
2018-06-12T07:30:54.166Z,17.37
2018-06-12T07:33:22.574Z,17.28
2018-06-12T07:35:51.031Z,17.56
2018-06-12T07:38:19.459Z,17.25
2018-06-12T07:40:48.023Z,17.38
2018-06-12T07:43:16.479Z,17.41
2018-06-12T07:45:44.899Z,17.33
2018-06-12T07:48:13.333Z,17.54
2018-06-12T07:50:41.784Z,17.55
2018-06-12T07:53:10.655Z,17.94
2018-06-12T07:55:39.079Z,18.13
2018-06-12T07:58:07.547Z,17.66
2018-06-12T08:00:36.970Z,17.55
2018-06-12T08:03:05.404Z,17.43
2018-06-12T08:05:34.047Z,17.15
2018-06-12T08:08:02.455Z,17.20
2018-06-12T08:10:30.891Z,17.20
2018-06-12T08:12:59.479Z,16.93
2018-06-12T08:15:27.832Z,17.02
2018-06-12T08:17:56.303Z,16.88
2018-06-12T08:20:24.720Z,16.94
2018-06-12T08:22:53.143Z,17.10
2018-06-12T08:25:21.610Z,17.13
2018-06-12T08:27:50.036Z,17.43
2018-06-12T08:30:18.694Z,17.03
2018-06-12T08:32:47.023Z,17.07
2018-06-12T08:35:15.459Z,17.09
2018-06-12T08:37:43.923Z,17.01
2018-06-12T08:40:12.392Z,17.18
2018-06-12T08:42:41.047Z,17.23
2018-06-12T08:45:09.595Z,17.29
2018-06-12T08:47:38.039Z,17.40
2018-06-12T08:50:06.520Z,17.41
2018-06-12T08:52:34.931Z,17.33
2018-06-12T08:55:03.428Z,17.21
2018-06-12T08:57:31.967Z,17.36
2018-06-12T09:00:00.451Z,17.64
2018-06-12T09:02:28.998Z,17.07
2018-06-12T09:04:57.463Z,17.09
2018-06-12T09:07:26.336Z,17.04
2018-06-12T09:09:54.751Z,17.13
2018-06-12T09:12:23.183Z,17.08
2018-06-12T09:14:51.600Z,17.10
2018-06-12T09:17:20.078Z,17.10
2018-06-12T09:19:48.543Z,17.02
2018-06-12T09:22:16.999Z,16.93
2018-06-12T09:24:45.444Z,17.05
2018-06-12T09:27:13.901Z,17.07
2018-06-12T09:29:42.359Z,16.93
2018-06-12T09:32:10.828Z,16.98
2018-06-12T09:34:39.251Z,16.98
2018-06-12T09:37:07.687Z,16.85
2018-06-12T09:39:36.105Z,16.99
2018-06-12T09:42:04.876Z,16.96
2018-06-12T09:44:33.287Z,16.88
2018-06-12T09:47:01.740Z,16.72
2018-06-12T09:49:30.471Z,16.95
2018-06-12T09:51:58.919Z,16.77
2018-06-12T09:54:27.523Z,16.92
2018-06-12T09:56:55.955Z,16.88
2018-06-12T09:59:24.433Z,17.16
2018-06-12T10:01:52.871Z,17.27
2018-06-12T10:04:21.295Z,17.65
2018-06-12T10:06:49.786Z,17.60
2018-06-12T10:09:18.212Z,17.30
2018-06-12T10:11:46.657Z,17.37
2018-06-12T10:14:15.111Z,17.45
2018-06-12T10:16:43.559Z,17.58
2018-06-12T10:19:11.996Z,17.93
2018-06-12T10:21:40.419Z,17.54
2018-06-12T10:24:08.848Z,17.33
2018-06-12T10:26:37.280Z,17.41
2018-06-12T10:29:05.880Z,17.22
2018-06-12T10:31:34.499Z,17.27
2018-06-12T10:34:02.939Z,17.45
2018-06-12T10:36:31.390Z,17.51
2018-06-12T10:38:59.843Z,17.48
2018-06-12T10:41:28.283Z,17.93
2018-06-12T10:43:56.888Z,18.24
2018-06-12T10:46:25.320Z,18.20
2018-06-12T10:48:53.779Z,18.08
2018-06-12T10:51:22.219Z,17.73
2018-06-12T10:53:50.646Z,17.47
2018-06-12T10:56:19.187Z,18.00
2018-06-12T10:58:47.594Z,18.29
2018-06-12T11:01:16.047Z,18.66
2018-06-12T11:03:44.499Z,18.60
2018-06-12T11:06:12.919Z,18.51
2018-06-12T11:08:41.465Z,18.32
2018-06-12T11:11:09.888Z,18.68
2018-06-12T11:13:38.304Z,18.72
2018-06-12T11:16:06.807Z,18.88
2018-06-12T11:18:35.239Z,18.69
2018-06-12T11:21:03.777Z,18.44
2018-06-12T11:23:32.203Z,18.55
2018-06-12T11:26:00.634Z,18.55
2018-06-12T11:28:29.082Z,18.49
2018-06-12T11:30:57.498Z,18.61
2018-06-12T11:33:26.179Z,18.75
2018-06-12T11:35:54.599Z,18.30
2018-06-12T11:38:23.009Z,18.67
2018-06-12T11:40:51.439Z,18.33
2018-06-12T11:43:19.867Z,18.34
2018-06-12T11:45:48.307Z,18.31
2018-06-12T11:48:16.704Z,18.86
2018-06-12T11:50:45.152Z,18.51
2018-06-12T11:53:13.588Z,18.49
2018-06-12T11:55:42.052Z,18.40
2018-06-12T11:58:10.496Z,18.59
2018-06-12T12:00:38.959Z,18.68
2018-06-12T12:03:07.377Z,18.52
2018-06-12T12:05:35.819Z,18.74
2018-06-12T12:08:04.256Z,19.01
2018-06-12T12:10:32.744Z,19.01
2018-06-12T12:13:01.159Z,18.97
2018-06-12T12:15:29.596Z,18.79
2018-06-12T12:17:58.064Z,18.51
2018-06-12T12:20:26.472Z,18.97
2018-06-12T12:22:54.891Z,18.97
2018-06-12T12:25:23.344Z,18.93
2018-06-12T12:27:51.802Z,19.06
2018-06-12T12:30:20.248Z,19.09
2018-06-12T12:32:48.735Z,18.98
2018-06-12T12:35:17.179Z,19.01
2018-06-12T12:37:45.578Z,19.00
2018-06-12T12:40:14.023Z,19.17
2018-06-12T12:42:42.487Z,18.94
2018-06-12T12:45:10.919Z,18.94
2018-06-12T12:47:39.371Z,19.12
2018-06-12T12:50:07.810Z,19.14
2018-06-12T12:52:36.236Z,19.30
2018-06-12T12:55:04.707Z,19.44
2018-06-12T12:57:33.147Z,19.32
2018-06-12T13:00:01.588Z,19.46
2018-06-12T13:02:30.036Z,19.56
2018-06-12T13:04:58.515Z,19.45
2018-06-12T13:07:26.960Z,19.54
2018-06-12T13:09:55.419Z,19.71
2018-06-12T13:12:23.848Z,19.59
2018-06-12T13:14:52.283Z,19.57
2018-06-12T13:17:20.739Z,19.33
2018-06-12T13:19:49.151Z,19.25
2018-06-12T13:22:17.569Z,19.27
2018-06-12T13:24:46.015Z,19.11
2018-06-12T13:27:14.435Z,18.93
2018-06-12T13:29:42.846Z,19.03
2018-06-12T13:32:11.295Z,18.82
2018-06-12T13:34:39.711Z,19.23
2018-06-12T13:37:08.171Z,19.20
2018-06-12T13:39:36.603Z,19.05
2018-06-12T13:42:05.011Z,19.32
2018-06-12T13:44:33.475Z,19.17
2018-06-12T13:47:01.975Z,19.11
2018-06-12T13:49:30.527Z,19.35
2018-06-12T13:51:58.987Z,19.09
2018-06-12T13:54:27.445Z,18.90
2018-06-12T13:56:55.944Z,19.17
2018-06-12T13:59:24.377Z,18.91
2018-06-12T14:01:52.859Z,18.76
2018-06-12T14:04:21.303Z,18.68
2018-06-12T14:06:49.735Z,18.81
2018-06-12T14:09:18.167Z,19.20
2018-06-12T14:11:46.592Z,19.04
2018-06-12T14:14:15.038Z,19.12
2018-06-12T14:16:43.481Z,19.00
2018-06-12T14:19:11.948Z,19.31
2018-06-12T14:21:40.380Z,19.22
2018-06-12T14:24:08.795Z,19.48
2018-06-12T14:26:37.243Z,19.47
2018-06-12T14:29:05.668Z,19.52
2018-06-12T14:31:34.146Z,19.28
2018-06-12T14:34:02.603Z,19.42
2018-06-12T14:36:31.007Z,19.47
2018-06-12T14:38:59.440Z,19.37
2018-06-12T14:41:27.875Z,19.45
2018-06-12T14:43:56.471Z,19.14
2018-06-12T14:46:24.903Z,19.11
2018-06-12T14:48:53.458Z,19.12
2018-06-12T14:51:21.940Z,19.15
2018-06-12T14:53:50.355Z,19.44
2018-06-12T14:56:18.947Z,19.42
2018-06-12T14:58:47.411Z,19.28
2018-06-12T15:01:15.840Z,19.19
2018-06-12T15:03:44.329Z,19.04
2018-06-12T15:06:12.752Z,19.04
2018-06-12T15:08:41.551Z,19.05
2018-06-12T15:11:09.991Z,19.25
2018-06-12T15:13:38.399Z,19.33
2018-06-12T15:16:06.883Z,19.09
2018-06-12T15:18:35.304Z,19.09
2018-06-12T15:21:03.875Z,19.22
2018-06-12T15:23:32.303Z,19.42
2018-06-12T15:26:00.715Z,19.35
2018-06-12T15:28:29.166Z,19.56
2018-06-12T15:30:57.591Z,19.56
2018-06-12T15:33:26.110Z,19.54
2018-06-12T15:35:54.507Z,19.50
2018-06-12T15:38:22.935Z,19.37
2018-06-12T15:40:51.375Z,19.32
2018-06-12T15:43:19.800Z,19.57
2018-06-12T15:45:48.587Z,19.42
2018-06-12T15:48:17.024Z,19.48
2018-06-12T15:50:45.433Z,19.33
2018-06-12T15:53:13.907Z,19.33
2018-06-12T15:55:42.335Z,19.45
2018-06-12T15:58:10.803Z,19.30
2018-06-12T16:00:39.253Z,19.27
2018-06-12T16:03:07.751Z,19.34
2018-06-12T16:05:36.208Z,19.35
2018-06-12T16:08:04.724Z,19.36
2018-06-12T16:10:33.201Z,19.43
2018-06-12T16:13:01.683Z,19.55
2018-06-12T16:15:30.165Z,19.40
2018-06-12T16:17:58.611Z,19.51
2018-06-12T16:20:27.077Z,19.46
2018-06-12T16:22:55.491Z,19.58
2018-06-12T16:25:24.075Z,19.74
2018-06-12T16:27:52.527Z,19.78
2018-06-12T16:30:20.966Z,19.69
2018-06-12T16:32:49.412Z,19.73
2018-06-12T16:35:17.820Z,19.77
2018-06-12T16:37:46.427Z,19.94
2018-06-12T16:40:14.854Z,19.81
2018-06-12T16:42:43.319Z,19.73
2018-06-12T16:45:11.804Z,19.57
2018-06-12T16:47:40.236Z,19.35
2018-06-12T16:50:08.805Z,19.51
2018-06-12T16:52:37.263Z,19.52
2018-06-12T16:55:05.683Z,19.79
2018-06-12T16:57:34.138Z,19.66
2018-06-12T17:00:02.561Z,19.83
2018-06-12T17:02:31.271Z,19.71
2018-06-12T17:04:59.758Z,19.64
2018-06-12T17:07:28.261Z,19.44
2018-06-12T17:09:56.719Z,19.56
2018-06-12T17:12:25.187Z,19.46
2018-06-12T17:14:53.653Z,19.63
2018-06-12T17:17:22.136Z,19.54
2018-06-12T17:19:50.599Z,19.39
2018-06-12T17:22:19.107Z,19.39
2018-06-12T17:24:47.587Z,19.40
2018-06-12T17:27:16.235Z,19.30
2018-06-12T17:29:44.696Z,19.38
2018-06-12T17:32:13.135Z,19.51
2018-06-12T17:34:41.592Z,19.48
2018-06-12T17:37:10.032Z,19.36
2018-06-12T17:39:38.844Z,19.32
2018-06-12T17:42:07.283Z,19.23
2018-06-12T17:44:35.743Z,19.26
2018-06-12T17:47:04.208Z,19.27
2018-06-12T17:49:32.699Z,19.16
2018-06-12T17:52:01.492Z,19.32
2018-06-12T17:54:29.907Z,19.35
2018-06-12T17:56:58.396Z,19.38
2018-06-12T17:59:26.878Z,19.23
2018-06-12T18:01:55.355Z,19.18
2018-06-12T18:04:24.175Z,19.05
2018-06-12T18:06:52.618Z,19.17
2018-06-12T18:09:21.079Z,19.29
2018-06-12T18:11:49.591Z,19.30
2018-06-12T18:14:18.036Z,19.28
2018-06-12T18:16:46.773Z,19.59
2018-06-12T18:19:15.221Z,19.40
2018-06-12T18:21:43.669Z,19.26
2018-06-12T18:24:12.123Z,19.28
2018-06-12T18:26:40.681Z,19.75
2018-06-12T18:29:09.445Z,19.73
2018-06-12T18:31:38.648Z,19.65
2018-06-12T18:34:07.119Z,19.63
2018-06-12T18:36:35.585Z,19.49
2018-06-12T18:39:04.588Z,19.18
2018-06-12T18:41:33.071Z,19.03
2018-06-12T18:44:01.592Z,18.97
2018-06-12T18:46:30.057Z,19.04
2018-06-12T18:48:58.511Z,18.89
2018-06-12T18:51:26.945Z,19.21
2018-06-12T18:53:55.374Z,19.23
2018-06-12T18:56:23.914Z,19.04
2018-06-12T18:58:52.379Z,19.15
2018-06-12T19:01:20.997Z,19.16
2018-06-12T19:03:49.522Z,19.09
2018-06-12T19:06:17.995Z,18.89
2018-06-12T19:08:46.555Z,19.06
2018-06-12T19:11:15.547Z,18.76
2018-06-12T19:13:44.034Z,18.81
2018-06-12T19:16:12.556Z,18.89
2018-06-12T19:18:41.024Z,19.03
2018-06-12T19:21:09.591Z,18.80
2018-06-12T19:23:38.113Z,18.72
2018-06-12T19:26:06.539Z,18.66
2018-06-12T19:28:35.052Z,18.51
2018-06-12T19:31:03.495Z,18.28
2018-06-12T19:33:32.378Z,18.33
2018-06-12T19:36:01.173Z,18.20
2018-06-12T19:38:30.005Z,18.24
2018-06-12T19:40:58.528Z,18.18
2018-06-12T19:43:27.006Z,18.01
2018-06-12T19:45:55.618Z,18.15
2018-06-12T19:48:24.086Z,18.04
2018-06-12T19:50:52.564Z,17.96
2018-06-12T19:53:21.813Z,17.94
2018-06-12T19:55:50.296Z,18.00
2018-06-12T19:58:19.084Z,17.88
2018-06-12T20:00:47.660Z,18.03
2018-06-12T20:03:16.164Z,17.74
2018-06-12T20:05:44.668Z,17.98
2018-06-12T20:08:13.158Z,18.10
2018-06-12T20:10:41.712Z,18.02
2018-06-12T20:13:10.244Z,18.10
2018-06-12T20:15:38.706Z,18.22
2018-06-12T20:18:07.300Z,18.21
2018-06-12T20:20:35.795Z,17.98
2018-06-12T20:23:04.272Z,18.06
2018-06-12T20:25:32.722Z,18.10
2018-06-12T20:28:01.148Z,17.95
2018-06-12T20:30:29.706Z,17.83
2018-06-12T20:32:59.000Z,17.98
2018-06-12T20:35:27.648Z,18.09
2018-06-12T20:37:56.143Z,17.91
2018-06-12T20:40:24.586Z,18.02
2018-06-12T20:42:53.128Z,18.12
2018-06-12T20:45:21.710Z,17.86
2018-06-12T20:47:50.378Z,18.02
2018-06-12T20:50:18.815Z,18.03
2018-06-12T20:52:47.276Z,17.97
2018-06-12T20:55:15.777Z,18.02
2018-06-12T20:57:44.236Z,17.93
2018-06-12T21:00:12.738Z,17.91
2018-06-12T21:02:41.247Z,17.99
2018-06-12T21:05:09.687Z,17.83
2018-06-12T21:07:38.176Z,18.00
2018-06-12T21:10:06.627Z,17.83
2018-06-12T21:12:35.246Z,18.05
2018-06-12T21:15:03.697Z,17.93
2018-06-12T21:17:32.143Z,17.98
2018-06-12T21:20:00.585Z,17.93
2018-06-12T21:22:28.992Z,18.02
2018-06-12T21:24:57.455Z,17.85
2018-06-12T21:27:26.008Z,17.62
2018-06-12T21:29:54.459Z,17.72
2018-06-12T21:32:22.932Z,17.68
2018-06-12T21:34:51.370Z,17.78
2018-06-12T21:37:19.950Z,17.58
2018-06-12T21:39:48.383Z,17.63
2018-06-12T21:42:16.810Z,17.50
2018-06-12T21:44:45.283Z,17.58
2018-06-12T21:47:13.711Z,17.52
2018-06-12T21:49:42.218Z,17.51
2018-06-12T21:52:10.656Z,17.42
2018-06-12T21:54:39.121Z,17.50
2018-06-12T21:57:07.562Z,17.78
2018-06-12T21:59:36.035Z,17.68
2018-06-12T22:02:04.536Z,17.88
2018-06-12T22:04:33.080Z,17.83
2018-06-12T22:07:01.592Z,17.88
2018-06-12T22:09:30.065Z,17.64
2018-06-12T22:11:58.500Z,17.46
2018-06-12T22:14:29.336Z,17.41
2018-06-12T22:16:58.320Z,17.37
2018-06-12T22:19:26.827Z,17.39
2018-06-12T22:21:55.299Z,17.33
2018-06-12T22:24:25.185Z,17.53
2018-06-12T22:26:53.647Z,17.42
2018-06-12T22:29:22.074Z,17.42
2018-06-12T22:31:50.499Z,17.41
2018-06-12T22:34:19.104Z,17.32
2018-06-12T22:36:47.568Z,17.44
2018-06-12T22:39:16.020Z,17.26
2018-06-12T22:41:44.431Z,17.33
2018-06-12T22:44:12.911Z,17.30
2018-06-12T22:46:41.373Z,17.26
2018-06-12T22:49:09.807Z,17.38
2018-06-12T22:51:38.358Z,17.45
2018-06-12T22:54:06.767Z,17.31
2018-06-12T22:56:35.219Z,17.60
2018-06-12T22:59:03.659Z,17.61
2018-06-12T23:01:32.079Z,17.59
2018-06-12T23:04:00.639Z,17.52
2018-06-12T23:06:29.047Z,17.44
2018-06-12T23:08:57.463Z,17.30
2018-06-12T23:11:25.948Z,17.48
2018-06-12T23:13:54.375Z,17.55
2018-06-12T23:16:22.956Z,17.49
2018-06-12T23:18:51.427Z,17.34
2018-06-12T23:21:46.198Z,17.46
2018-06-12T23:24:14.632Z,17.30
2018-06-12T23:26:43.074Z,17.17
2018-06-12T23:29:11.508Z,17.27
2018-06-12T23:31:39.919Z,17.32
2018-06-12T23:34:08.532Z,17.41
2018-06-12T23:36:36.950Z,17.34
2018-06-12T23:39:07.130Z,17.06
2018-06-12T23:41:35.575Z,17.12
2018-06-12T23:44:04.119Z,16.95
2018-06-12T23:46:32.686Z,16.96
2018-06-12T23:49:01.082Z,17.33
2018-06-12T23:51:29.503Z,17.26
2018-06-12T23:53:57.937Z,17.21
2018-06-12T23:56:26.347Z,17.08
2018-06-12T23:58:55.099Z,17.10
